Weather at Winfield Airpark

Public forecast

Using degrees Fahrenheit for public forecast. Weather courtesy of forecast.io.

Closest aviation weather report (METAR) to Winfield Airpark

Closest report is Fort Smith Regional Airport, 30.0 nm (55.5 km) W. Retrieved 2022/05/22 21:53 UTC (51 minutes ago):

KFSM 222153Z 08008KT 10SM OVC032 17/10 A3024 RMK AO2 SLP239 T01670100

Closest aviation forecast (TAF) to Winfield Airpark

Closest forecast is Fort Smith Regional Airport, 30.0 nm (55.5 km) W. Retrieved 2022/05/22 18:30 UTC (4 hours ago):

TAF KFSM 221727Z 2218/2318 06013KT P6SM OVC040 FM230200 09005KT P6SM OVC040